Bennett, New Mexico
Current Conditions -  °F | °C
As of 6:53 AM on Monday 24 Nov 2014 (Local Time) from KINK Reporting Station
Clear Clear  
Wind Chill: 23°   Ceiling: Unl
Heat Index: 28°   Visibility: 10mi
Dew Point: 22°   Wind: 5mph
Humidity: 78%   Direction: 340°NNW
Pressure: 30.07"   Gusts: NA
Location:  32.2207°N, 103.425°W
Report Text: KINK 241353Z AUTO 34004KT 10SM CLR M02/M06 A3007 RMK AO2 SLP181 T10221056
Loading
Personal Weather Stations






























Interactive Weather Map New forecast layout! Learn more

10-Day Weather Forecast

Advertisements
Track Severe Weather on mobile